Fairview, Michigan
Current Conditions -  °F | °C
As of 5:54 AM on Monday 22 Dec 2014 (Local Time) from KAPN Reporting Station
Few Clouds Few Clouds  
Wind Chill: 20°   Ceiling: Unl
Heat Index: 29°   Visibility: 8mi
Dew Point: 25°   Wind: 9mph
Humidity: 85%   Direction: 150°SSE
Pressure: 30.12"   Gusts: NA
Location:  44.73°N, 84.05°W
Report Text: KAPN 221054Z AUTO 15008KT 8SM FEW055 M02/M04 A3012 RMK AO2 SLP209 T10171039
Loading
Personal Weather Stations






























Interactive Weather Map New forecast layout! Learn more

10-Day Weather Forecast

Advertisements
Track Severe Weather on mobile